sensor_id;sensor_type;location;lat;lon;timestamp;temperature;humidity
12726;DHT22;6427;49.754;6.106;2023-08-08T00:00:52;13.20;99.90
12726;DHT22;6427;49.754;6.106;2023-08-08T00:03:20;13.20;99.90
12726;DHT22;6427;49.754;6.106;2023-08-08T00:05:47;13.10;99.90
12726;DHT22;6427;49.754;6.106;2023-08-08T00:08:15;13.00;99.90
12726;DHT22;6427;49.754;6.106;2023-08-08T00:10:42;13.00;99.90
12726;DHT22;6427;49.754;6.106;2023-08-08T00:13:10;12.90;99.90
12726;DHT22;6427;49.754;6.106;2023-08-08T00:15:38;12.90;99.90
12726;DHT22;6427;49.754;6.106;2023-08-08T00:18:05;12.80;99.90
12726;DHT22;6427;49.754;6.106;2023-08-08T00:20:33;12.80;99.90
12726;DHT22;6427;49.754;6.106;2023-08-08T00:23:00;13.00;99.90
12726;DHT22;6427;49.754;6.106;2023-08-08T00:25:28;12.90;99.90
12726;DHT22;6427;49.754;6.106;2023-08-08T00:27:56;12.80;99.90
12726;DHT22;6427;49.754;6.106;2023-08-08T00:30:25;12.70;99.90
12726;DHT22;6427;49.754;6.106;2023-08-08T00:32:52;12.70;99.90
12726;DHT22;6427;49.754;6.106;2023-08-08T00:35:21;12.60;99.90
12726;DHT22;6427;49.754;6.106;2023-08-08T00:37:48;12.70;99.90
12726;DHT22;6427;49.754;6.106;2023-08-08T00:40:17;12.60;99.90
12726;DHT22;6427;49.754;6.106;2023-08-08T00:42:44;12.60;99.90
12726;DHT22;6427;49.754;6.106;2023-08-08T00:45:12;12.60;99.90
12726;DHT22;6427;49.754;6.106;2023-08-08T00:47:39;12.80;99.90
12726;DHT22;6427;49.754;6.106;2023-08-08T00:50:07;12.80;99.90
12726;DHT22;6427;49.754;6.106;2023-08-08T00:52:35;12.60;99.90
12726;DHT22;6427;49.754;6.106;2023-08-08T00:55:02;12.60;99.90
12726;DHT22;6427;49.754;6.106;2023-08-08T00:57:31;12.50;99.90
12726;DHT22;6427;49.754;6.106;2023-08-08T00:59:59;12.40;99.90
12726;DHT22;6427;49.754;6.106;2023-08-08T01:02:26;12.40;99.90
12726;DHT22;6427;49.754;6.106;2023-08-08T01:04:54;12.40;99.90
12726;DHT22;6427;49.754;6.106;2023-08-08T01:07:33;12.60;99.90
12726;DHT22;6427;49.754;6.106;2023-08-08T01:12:28;12.50;99.90
12726;DHT22;6427;49.754;6.106;2023-08-08T01:14:56;12.40;99.90
12726;DHT22;6427;49.754;6.106;2023-08-08T01:17:24;12.40;99.90
12726;DHT22;6427;49.754;6.106;2023-08-08T01:19:52;12.30;99.90
12726;DHT22;6427;49.754;6.106;2023-08-08T01:22:23;12.30;99.90
12726;DHT22;6427;49.754;6.106;2023-08-08T01:24:47;12.20;99.90
12726;DHT22;6427;49.754;6.106;2023-08-08T01:27:14;12.20;99.90
12726;DHT22;6427;49.754;6.106;2023-08-08T01:29:42;12.20;99.90
12726;DHT22;6427;49.754;6.106;2023-08-08T01:32:10;12.10;99.90
12726;DHT22;6427;49.754;6.106;2023-08-08T01:34:39;12.10;99.90
12726;DHT22;6427;49.754;6.106;2023-08-08T01:37:13;12.00;99.90
12726;DHT22;6427;49.754;6.106;2023-08-08T01:39:39;12.10;99.90
12726;DHT22;6427;49.754;6.106;2023-08-08T01:42:07;12.10;99.90
12726;DHT22;6427;49.754;6.106;2023-08-08T01:44:35;12.00;99.90
12726;DHT22;6427;49.754;6.106;2023-08-08T01:47:02;11.90;99.90
12726;DHT22;6427;49.754;6.106;2023-08-08T01:49:31;11.90;99.90
12726;DHT22;6427;49.754;6.106;2023-08-08T01:51:58;11.80;99.90
12726;DHT22;6427;49.754;6.106;2023-08-08T01:54:26;11.90;99.90
12726;DHT22;6427;49.754;6.106;2023-08-08T01:56:54;11.80;99.90
12726;DHT22;6427;49.754;6.106;2023-08-08T01:59:21;11.80;99.90
12726;DHT22;6427;49.754;6.106;2023-08-08T02:01:49;11.80;99.90
12726;DHT22;6427;49.754;6.106;2023-08-08T02:04:16;11.80;99.90
12726;DHT22;6427;49.754;6.106;2023-08-08T02:06:44;11.80;99.90
12726;DHT22;6427;49.754;6.106;2023-08-08T02:09:11;11.80;99.90
12726;DHT22;6427;49.754;6.106;2023-08-08T02:11:39;11.80;99.90
12726;DHT22;6427;49.754;6.106;2023-08-08T02:14:07;11.70;99.90
12726;DHT22;6427;49.754;6.106;2023-08-08T02:16:34;11.70;99.90
12726;DHT22;6427;49.754;6.106;2023-08-08T02:19:02;11.70;99.90
12726;DHT22;6427;49.754;6.106;2023-08-08T02:21:29;11.70;99.90
12726;DHT22;6427;49.754;6.106;2023-08-08T02:23:57;11.70;99.90
12726;DHT22;6427;49.754;6.106;2023-08-08T02:26:25;11.60;99.90
12726;DHT22;6427;49.754;6.106;2023-08-08T02:28:52;11.60;99.90
12726;DHT22;6427;49.754;6.106;2023-08-08T02:31:20;11.60;99.90
12726;DHT22;6427;49.754;6.106;2023-08-08T02:33:49;11.60;99.90
12726;DHT22;6427;49.754;6.106;2023-08-08T02:36:16;11.60;99.90
12726;DHT22;6427;49.754;6.106;2023-08-08T02:38:44;11.60;99.90
12726;DHT22;6427;49.754;6.106;2023-08-08T02:41:12;11.60;99.90
12726;DHT22;6427;49.754;6.106;2023-08-08T02:43:39;11.60;99.90
12726;DHT22;6427;49.754;6.106;2023-08-08T02:46:07;11.50;99.90
12726;DHT22;6427;49.754;6.106;2023-08-08T02:48:35;11.50;99.90
12726;DHT22;6427;49.754;6.106;2023-08-08T02:51:02;11.80;99.90
12726;DHT22;6427;49.754;6.106;2023-08-08T02:53:30;11.70;99.90
12726;DHT22;6427;49.754;6.106;2023-08-08T02:55:57;11.70;99.90
12726;DHT22;6427;49.754;6.106;2023-08-08T02:58:25;11.90;99.90
12726;DHT22;6427;49.754;6.106;2023-08-08T03:00:53;11.70;99.90
12726;DHT22;6427;49.754;6.106;2023-08-08T03:03:21;11.70;99.90
12726;DHT22;6427;49.754;6.106;2023-08-08T03:05:49;11.60;99.90
12726;DHT22;6427;49.754;6.106;2023-08-08T03:08:16;11.80;99.90
12726;DHT22;6427;49.754;6.106;2023-08-08T03:10:44;11.80;99.90
12726;DHT22;6427;49.754;6.106;2023-08-08T03:13:12;11.60;99.90
12726;DHT22;6427;49.754;6.106;2023-08-08T03:15:40;11.60;99.90
12726;DHT22;6427;49.754;6.106;2023-08-08T03:18:07;11.50;99.90
12726;DHT22;6427;49.754;6.106;2023-08-08T03:20:35;11.50;99.90
12726;DHT22;6427;49.754;6.106;2023-08-08T03:23:03;11.40;99.90
12726;DHT22;6427;49.754;6.106;2023-08-08T03:25:30;11.40;99.90
12726;DHT22;6427;49.754;6.106;2023-08-08T03:27:58;11.40;99.90
12726;DHT22;6427;49.754;6.106;2023-08-08T03:30:25;11.40;99.90
12726;DHT22;6427;49.754;6.106;2023-08-08T03:32:53;11.30;99.90
12726;DHT22;6427;49.754;6.106;2023-08-08T03:35:20;11.20;99.90
12726;DHT22;6427;49.754;6.106;2023-08-08T03:37:48;11.20;99.90
12726;DHT22;6427;49.754;6.106;2023-08-08T03:40:16;11.20;99.90
12726;DHT22;6427;49.754;6.106;2023-08-08T03:42:43;11.10;99.90
12726;DHT22;6427;49.754;6.106;2023-08-08T03:45:11;11.10;99.90
12726;DHT22;6427;49.754;6.106;2023-08-08T03:47:38;11.10;99.90
12726;DHT22;6427;49.754;6.106;2023-08-08T03:50:07;11.30;99.90
12726;DHT22;6427;49.754;6.106;2023-08-08T03:52:34;11.20;99.90
12726;DHT22;6427;49.754;6.106;2023-08-08T03:55:02;11.20;99.90
12726;DHT22;6427;49.754;6.106;2023-08-08T03:57:30;11.10;99.90
12726;DHT22;6427;49.754;6.106;2023-08-08T03:59:57;11.10;99.90
12726;DHT22;6427;49.754;6.106;2023-08-08T04:02:25;11.10;99.90
12726;DHT22;6427;49.754;6.106;2023-08-08T04:04:53;11.30;99.90
12726;DHT22;6427;49.754;6.106;2023-08-08T04:07:21;11.30;99.90
12726;DHT22;6427;49.754;6.106;2023-08-08T04:09:49;11.20;99.90
12726;DHT22;6427;49.754;6.106;2023-08-08T04:12:17;11.10;99.90
12726;DHT22;6427;49.754;6.106;2023-08-08T04:14:44;11.10;99.90
12726;DHT22;6427;49.754;6.106;2023-08-08T04:17:12;11.10;99.90
12726;DHT22;6427;49.754;6.106;2023-08-08T04:19:40;11.10;99.90
12726;DHT22;6427;49.754;6.106;2023-08-08T04:22:07;11.00;99.90
12726;DHT22;6427;49.754;6.106;2023-08-08T04:24:35;11.00;99.90
12726;DHT22;6427;49.754;6.106;2023-08-08T04:27:03;11.30;99.90
12726;DHT22;6427;49.754;6.106;2023-08-08T04:29:30;11.30;99.90
12726;DHT22;6427;49.754;6.106;2023-08-08T04:31:58;11.30;99.90
12726;DHT22;6427;49.754;6.106;2023-08-08T04:34:25;11.20;99.90
12726;DHT22;6427;49.754;6.106;2023-08-08T04:36:53;11.20;99.90
12726;DHT22;6427;49.754;6.106;2023-08-08T04:39:21;11.20;99.90
12726;DHT22;6427;49.754;6.106;2023-08-08T04:41:48;11.50;99.90
12726;DHT22;6427;49.754;6.106;2023-08-08T04:44:16;11.50;99.90
12726;DHT22;6427;49.754;6.106;2023-08-08T04:46:43;11.40;99.90
12726;DHT22;6427;49.754;6.106;2023-08-08T04:49:11;11.40;99.90
12726;DHT22;6427;49.754;6.106;2023-08-08T04:51:39;11.40;99.90
12726;DHT22;6427;49.754;6.106;2023-08-08T04:54:06;11.40;99.90
12726;DHT22;6427;49.754;6.106;2023-08-08T04:56:34;11.50;99.90
12726;DHT22;6427;49.754;6.106;2023-08-08T04:59:02;11.50;99.90
12726;DHT22;6427;49.754;6.106;2023-08-08T05:01:30;11.50;99.90
12726;DHT22;6427;49.754;6.106;2023-08-08T05:03:57;11.50;99.90
12726;DHT22;6427;49.754;6.106;2023-08-08T05:06:25;11.60;99.90
12726;DHT22;6427;49.754;6.106;2023-08-08T05:08:53;11.60;99.90
12726;DHT22;6427;49.754;6.106;2023-08-08T05:11:21;11.70;99.90
12726;DHT22;6427;49.754;6.106;2023-08-08T05:13:49;11.60;99.90
12726;DHT22;6427;49.754;6.106;2023-08-08T05:16:17;11.70;99.90
12726;DHT22;6427;49.754;6.106;2023-08-08T05:18:44;11.70;99.90
12726;DHT22;6427;49.754;6.106;2023-08-08T05:21:12;11.90;99.90
12726;DHT22;6427;49.754;6.106;2023-08-08T05:23:40;11.90;99.90
12726;DHT22;6427;49.754;6.106;2023-08-08T05:26:07;11.90;99.90
12726;DHT22;6427;49.754;6.106;2023-08-08T05:28:35;12.00;99.90
12726;DHT22;6427;49.754;6.106;2023-08-08T05:31:03;12.10;99.90
12726;DHT22;6427;49.754;6.106;2023-08-08T05:33:30;12.30;99.90
12726;DHT22;6427;49.754;6.106;2023-08-08T05:35:58;12.40;99.90
12726;DHT22;6427;49.754;6.106;2023-08-08T05:38:25;12.40;99.90
12726;DHT22;6427;49.754;6.106;2023-08-08T05:40:53;12.40;99.90
12726;DHT22;6427;49.754;6.106;2023-08-08T05:43:21;12.40;99.90
12726;DHT22;6427;49.754;6.106;2023-08-08T05:45:48;12.50;99.90
12726;DHT22;6427;49.754;6.106;2023-08-08T05:48:16;12.50;99.90
12726;DHT22;6427;49.754;6.106;2023-08-08T05:50:43;12.60;99.90
12726;DHT22;6427;49.754;6.106;2023-08-08T05:53:11;12.70;99.90
12726;DHT22;6427;49.754;6.106;2023-08-08T05:55:40;13.00;99.90
12726;DHT22;6427;49.754;6.106;2023-08-08T05:58:07;13.10;99.90
12726;DHT22;6427;49.754;6.106;2023-08-08T06:00:35;13.10;99.90
12726;DHT22;6427;49.754;6.106;2023-08-08T06:03:02;13.10;99.90
12726;DHT22;6427;49.754;6.106;2023-08-08T06:05:31;13.40;99.90
12726;DHT22;6427;49.754;6.106;2023-08-08T06:07:58;13.40;99.90
12726;DHT22;6427;49.754;6.106;2023-08-08T06:10:26;13.40;99.90
12726;DHT22;6427;49.754;6.106;2023-08-08T06:12:53;13.40;99.90
12726;DHT22;6427;49.754;6.106;2023-08-08T06:15:21;13.40;99.90
12726;DHT22;6427;49.754;6.106;2023-08-08T06:17:49;13.50;99.90
12726;DHT22;6427;49.754;6.106;2023-08-08T06:20:17;13.80;99.90
12726;DHT22;6427;49.754;6.106;2023-08-08T06:22:45;13.80;99.90
12726;DHT22;6427;49.754;6.106;2023-08-08T06:25:12;13.90;99.90
12726;DHT22;6427;49.754;6.106;2023-08-08T06:27:40;13.90;99.90
12726;DHT22;6427;49.754;6.106;2023-08-08T06:30:07;13.90;99.90
12726;DHT22;6427;49.754;6.106;2023-08-08T06:32:35;14.20;99.90
12726;DHT22;6427;49.754;6.106;2023-08-08T06:35:03;14.50;99.90
12726;DHT22;6427;49.754;6.106;2023-08-08T06:37:30;14.50;99.90
12726;DHT22;6427;49.754;6.106;2023-08-08T06:39:58;14.50;99.90
12726;DHT22;6427;49.754;6.106;2023-08-08T06:42:25;14.60;99.90
12726;DHT22;6427;49.754;6.106;2023-08-08T06:44:53;14.70;99.90
12726;DHT22;6427;49.754;6.106;2023-08-08T06:47:21;14.70;99.90
12726;DHT22;6427;49.754;6.106;2023-08-08T06:49:48;14.80;99.90
12726;DHT22;6427;49.754;6.106;2023-08-08T06:52:17;14.90;99.90
12726;DHT22;6427;49.754;6.106;2023-08-08T06:54:44;14.90;99.90
12726;DHT22;6427;49.754;6.106;2023-08-08T06:57:13;15.30;99.90
12726;DHT22;6427;49.754;6.106;2023-08-08T06:59:40;15.30;99.90
12726;DHT22;6427;49.754;6.106;2023-08-08T07:02:08;15.30;99.90
12726;DHT22;6427;49.754;6.106;2023-08-08T07:04:35;15.40;99.90
12726;DHT22;6427;49.754;6.106;2023-08-08T07:07:03;15.40;99.90
12726;DHT22;6427;49.754;6.106;2023-08-08T07:09:31;15.40;99.90
12726;DHT22;6427;49.754;6.106;2023-08-08T07:11:58;15.30;99.90
12726;DHT22;6427;49.754;6.106;2023-08-08T07:14:26;15.30;99.90
12726;DHT22;6427;49.754;6.106;2023-08-08T07:16:53;15.30;99.90
12726;DHT22;6427;49.754;6.106;2023-08-08T07:19:21;15.30;99.90
12726;DHT22;6427;49.754;6.106;2023-08-08T07:21:49;15.30;99.90
12726;DHT22;6427;49.754;6.106;2023-08-08T07:24:17;15.30;99.90
12726;DHT22;6427;49.754;6.106;2023-08-08T07:26:45;15.30;99.90
12726;DHT22;6427;49.754;6.106;2023-08-08T07:29:13;15.30;99.90
12726;DHT22;6427;49.754;6.106;2023-08-08T07:31:41;15.40;99.90
12726;DHT22;6427;49.754;6.106;2023-08-08T07:34:08;15.40;99.90
12726;DHT22;6427;49.754;6.106;2023-08-08T07:36:36;15.40;99.90
12726;DHT22;6427;49.754;6.106;2023-08-08T07:39:03;15.50;99.90
12726;DHT22;6427;49.754;6.106;2023-08-08T07:41:31;15.50;99.90
12726;DHT22;6427;49.754;6.106;2023-08-08T07:43:59;15.60;99.90
12726;DHT22;6427;49.754;6.106;2023-08-08T07:46:27;15.70;99.90
12726;DHT22;6427;49.754;6.106;2023-08-08T07:48:55;15.70;99.90
12726;DHT22;6427;49.754;6.106;2023-08-08T07:51:22;15.70;99.90
12726;DHT22;6427;49.754;6.106;2023-08-08T07:53:50;16.00;99.90
12726;DHT22;6427;49.754;6.106;2023-08-08T07:56:17;16.10;99.90
12726;DHT22;6427;49.754;6.106;2023-08-08T07:58:45;16.10;99.90
12726;DHT22;6427;49.754;6.106;2023-08-08T08:01:13;16.30;99.90
12726;DHT22;6427;49.754;6.106;2023-08-08T08:03:40;16.30;99.90
12726;DHT22;6427;49.754;6.106;2023-08-08T08:06:08;16.30;99.90
12726;DHT22;6427;49.754;6.106;2023-08-08T08:08:35;16.60;99.90
12726;DHT22;6427;49.754;6.106;2023-08-08T08:11:03;16.60;99.90
12726;DHT22;6427;49.754;6.106;2023-08-08T08:13:31;16.60;99.90
12726;DHT22;6427;49.754;6.106;2023-08-08T08:15:58;16.60;99.90
12726;DHT22;6427;49.754;6.106;2023-08-08T08:18:27;16.80;99.90
12726;DHT22;6427;49.754;6.106;2023-08-08T08:20:55;16.80;99.90
12726;DHT22;6427;49.754;6.106;2023-08-08T08:23:22;16.80;99.90
12726;DHT22;6427;49.754;6.106;2023-08-08T08:25:51;16.80;99.90
12726;DHT22;6427;49.754;6.106;2023-08-08T08:28:19;16.80;99.90
12726;DHT22;6427;49.754;6.106;2023-08-08T08:30:46;16.80;99.90
12726;DHT22;6427;49.754;6.106;2023-08-08T08:33:14;16.80;99.90
12726;DHT22;6427;49.754;6.106;2023-08-08T08:35:41;16.80;99.90
12726;DHT22;6427;49.754;6.106;2023-08-08T08:38:10;17.10;99.90
12726;DHT22;6427;49.754;6.106;2023-08-08T08:40:38;17.10;99.90
12726;DHT22;6427;49.754;6.106;2023-08-08T08:43:05;17.20;99.90
12726;DHT22;6427;49.754;6.106;2023-08-08T08:45:34;17.10;99.90
12726;DHT22;6427;49.754;6.106;2023-08-08T08:48:00;17.10;99.90
12726;DHT22;6427;49.754;6.106;2023-08-08T08:50:28;17.20;99.90
12726;DHT22;6427;49.754;6.106;2023-08-08T08:52:56;17.30;99.90
12726;DHT22;6427;49.754;6.106;2023-08-08T08:55:24;17.30;99.90
12726;DHT22;6427;49.754;6.106;2023-08-08T08:57:51;17.30;99.90
12726;DHT22;6427;49.754;6.106;2023-08-08T09:00:20;17.50;99.90
12726;DHT22;6427;49.754;6.106;2023-08-08T09:02:48;17.50;99.90
12726;DHT22;6427;49.754;6.106;2023-08-08T09:05:15;17.80;99.90
12726;DHT22;6427;49.754;6.106;2023-08-08T09:07:43;18.10;99.90
12726;DHT22;6427;49.754;6.106;2023-08-08T09:10:11;18.20;99.90
12726;DHT22;6427;49.754;6.106;2023-08-08T09:12:39;18.30;99.90
12726;DHT22;6427;49.754;6.106;2023-08-08T09:15:07;18.30;99.90
12726;DHT22;6427;49.754;6.106;2023-08-08T09:17:35;18.50;99.90
12726;DHT22;6427;49.754;6.106;2023-08-08T09:20:03;18.50;99.90
12726;DHT22;6427;49.754;6.106;2023-08-08T09:22:31;18.50;99.90
12726;DHT22;6427;49.754;6.106;2023-08-08T09:24:58;18.50;99.90
12726;DHT22;6427;49.754;6.106;2023-08-08T09:27:28;18.50;99.90
12726;DHT22;6427;49.754;6.106;2023-08-08T09:29:54;18.40;99.90
12726;DHT22;6427;49.754;6.106;2023-08-08T09:32:22;18.50;99.90
12726;DHT22;6427;49.754;6.106;2023-08-08T09:34:51;18.70;99.90
12726;DHT22;6427;49.754;6.106;2023-08-08T09:37:17;18.70;99.90
12726;DHT22;6427;49.754;6.106;2023-08-08T09:39:46;18.70;99.90
12726;DHT22;6427;49.754;6.106;2023-08-08T09:42:13;18.60;99.90
12726;DHT22;6427;49.754;6.106;2023-08-08T09:44:42;18.70;99.90
12726;DHT22;6427;49.754;6.106;2023-08-08T09:47:12;19.00;99.50
12726;DHT22;6427;49.754;6.106;2023-08-08T09:49:37;19.00;99.50
12726;DHT22;6427;49.754;6.106;2023-08-08T09:52:04;19.10;99.30
12726;DHT22;6427;49.754;6.106;2023-08-08T09:54:33;19.30;98.50
12726;DHT22;6427;49.754;6.106;2023-08-08T09:57:00;19.20;98.40
12726;DHT22;6427;49.754;6.106;2023-08-08T09:59:28;19.30;97.80
12726;DHT22;6427;49.754;6.106;2023-08-08T10:01:56;19.90;96.80
12726;DHT22;6427;49.754;6.106;2023-08-08T10:04:24;19.90;96.50
12726;DHT22;6427;49.754;6.106;2023-08-08T10:06:52;19.90;95.30
12726;DHT22;6427;49.754;6.106;2023-08-08T10:09:19;20.00;95.00
12726;DHT22;6427;49.754;6.106;2023-08-08T10:11:47;20.30;94.70
12726;DHT22;6427;49.754;6.106;2023-08-08T10:14:14;20.40;94.40
12726;DHT22;6427;49.754;6.106;2023-08-08T10:16:42;20.50;94.20
12726;DHT22;6427;49.754;6.106;2023-08-08T10:19:10;20.50;94.00
12726;DHT22;6427;49.754;6.106;2023-08-08T10:21:43;20.50;93.30
12726;DHT22;6427;49.754;6.106;2023-08-08T10:24:10;20.50;93.00
12726;DHT22;6427;49.754;6.106;2023-08-08T10:26:56;20.70;92.20
12726;DHT22;6427;49.754;6.106;2023-08-08T10:29:24;20.60;92.00
12726;DHT22;6427;49.754;6.106;2023-08-08T10:32:02;20.70;92.00
12726;DHT22;6427;49.754;6.106;2023-08-08T10:34:41;20.70;92.00
12726;DHT22;6427;49.754;6.106;2023-08-08T10:37:14;20.70;92.00
12726;DHT22;6427;49.754;6.106;2023-08-08T10:39:54;20.80;91.90
12726;DHT22;6427;49.754;6.106;2023-08-08T10:42:22;20.80;92.10
12726;DHT22;6427;49.754;6.106;2023-08-08T10:44:55;20.70;91.80
12726;DHT22;6427;49.754;6.106;2023-08-08T10:47:23;20.70;91.80
12726;DHT22;6427;49.754;6.106;2023-08-08T10:49:59;20.70;91.80
12726;DHT22;6427;49.754;6.106;2023-08-08T10:52:24;20.70;92.00
12726;DHT22;6427;49.754;6.106;2023-08-08T10:54:52;20.80;91.80
12726;DHT22;6427;49.754;6.106;2023-08-08T10:57:23;20.80;91.80
12726;DHT22;6427;49.754;6.106;2023-08-08T10:59:47;20.90;91.90
12726;DHT22;6427;49.754;6.106;2023-08-08T11:02:15;20.80;91.90
12726;DHT22;6427;49.754;6.106;2023-08-08T11:04:43;20.80;91.90
12726;DHT22;6427;49.754;6.106;2023-08-08T11:07:10;21.00;91.60
12726;DHT22;6427;49.754;6.106;2023-08-08T11:09:39;20.80;91.70
12726;DHT22;6427;49.754;6.106;2023-08-08T11:12:12;20.80;91.60
12726;DHT22;6427;49.754;6.106;2023-08-08T11:14:34;20.70;91.70
12726;DHT22;6427;49.754;6.106;2023-08-08T11:17:01;20.50;92.10
12726;DHT22;6427;49.754;6.106;2023-08-08T11:19:29;20.50;92.40
12726;DHT22;6427;49.754;6.106;2023-08-08T11:21:57;20.40;92.70
12726;DHT22;6427;49.754;6.106;2023-08-08T11:24:24;20.40;93.10
12726;DHT22;6427;49.754;6.106;2023-08-08T11:26:57;20.50;93.20
12726;DHT22;6427;49.754;6.106;2023-08-08T11:29:19;20.60;93.40
12726;DHT22;6427;49.754;6.106;2023-08-08T11:31:47;20.70;93.40
12726;DHT22;6427;49.754;6.106;2023-08-08T11:34:15;20.80;93.50
12726;DHT22;6427;49.754;6.106;2023-08-08T11:36:43;21.20;93.30
12726;DHT22;6427;49.754;6.106;2023-08-08T11:39:11;21.10;93.30
12726;DHT22;6427;49.754;6.106;2023-08-08T11:41:38;21.10;93.00
12726;DHT22;6427;49.754;6.106;2023-08-08T11:44:06;21.20;92.30
12726;DHT22;6427;49.754;6.106;2023-08-08T11:46:34;20.80;92.30
12726;DHT22;6427;49.754;6.106;2023-08-08T11:49:06;20.80;92.30
12726;DHT22;6427;49.754;6.106;2023-08-08T11:51:29;20.70;92.60
12726;DHT22;6427;49.754;6.106;2023-08-08T11:53:57;20.50;92.90
12726;DHT22;6427;49.754;6.106;2023-08-08T11:56:25;20.30;93.40
12726;DHT22;6427;49.754;6.106;2023-08-08T11:58:54;20.00;94.30
12726;DHT22;6427;49.754;6.106;2023-08-08T12:01:24;20.00;94.30
12726;DHT22;6427;49.754;6.106;2023-08-08T12:03:52;19.70;96.30
12726;DHT22;6427;49.754;6.106;2023-08-08T12:06:19;19.70;96.30
12726;DHT22;6427;49.754;6.106;2023-08-08T12:08:48;19.40;98.60
12726;DHT22;6427;49.754;6.106;2023-08-08T12:11:15;19.40;98.60
12726;DHT22;6427;49.754;6.106;2023-08-08T12:13:43;19.40;99.60
12726;DHT22;6427;49.754;6.106;2023-08-08T12:16:11;19.40;99.90
12726;DHT22;6427;49.754;6.106;2023-08-08T12:18:38;19.50;99.90
12726;DHT22;6427;49.754;6.106;2023-08-08T12:21:06;19.60;99.90
12726;DHT22;6427;49.754;6.106;2023-08-08T12:23:34;19.80;99.90
12726;DHT22;6427;49.754;6.106;2023-08-08T12:26:04;19.80;99.90
12726;DHT22;6427;49.754;6.106;2023-08-08T12:28:32;19.80;99.90
12726;DHT22;6427;49.754;6.106;2023-08-08T12:31:00;19.80;99.90
12726;DHT22;6427;49.754;6.106;2023-08-08T12:33:28;19.80;99.90
12726;DHT22;6427;49.754;6.106;2023-08-08T12:35:56;19.70;99.90
12726;DHT22;6427;49.754;6.106;2023-08-08T12:38:23;19.60;99.90
12726;DHT22;6427;49.754;6.106;2023-08-08T12:40:51;19.50;99.90
12726;DHT22;6427;49.754;6.106;2023-08-08T12:43:18;19.50;99.90
12726;DHT22;6427;49.754;6.106;2023-08-08T12:45:46;19.50;99.90
12726;DHT22;6427;49.754;6.106;2023-08-08T12:48:14;19.50;99.90
12726;DHT22;6427;49.754;6.106;2023-08-08T12:50:41;19.50;99.90
12726;DHT22;6427;49.754;6.106;2023-08-08T12:53:09;19.50;99.90
12726;DHT22;6427;49.754;6.106;2023-08-08T12:55:36;19.70;99.90
12726;DHT22;6427;49.754;6.106;2023-08-08T12:58:04;19.70;99.90
12726;DHT22;6427;49.754;6.106;2023-08-08T13:00:32;19.60;99.90
12726;DHT22;6427;49.754;6.106;2023-08-08T13:02:59;19.60;99.90
12726;DHT22;6427;49.754;6.106;2023-08-08T13:05:27;19.50;99.90
12726;DHT22;6427;49.754;6.106;2023-08-08T13:07:54;19.60;99.90
12726;DHT22;6427;49.754;6.106;2023-08-08T13:10:23;20.10;99.90
12726;DHT22;6427;49.754;6.106;2023-08-08T13:12:50;20.10;99.90
12726;DHT22;6427;49.754;6.106;2023-08-08T13:15:18;20.30;99.90
12726;DHT22;6427;49.754;6.106;2023-08-08T13:17:46;20.60;99.90
12726;DHT22;6427;49.754;6.106;2023-08-08T13:20:13;20.70;99.10
12726;DHT22;6427;49.754;6.106;2023-08-08T13:22:41;20.70;98.20
12726;DHT22;6427;49.754;6.106;2023-08-08T13:25:08;20.70;97.80
12726;DHT22;6427;49.754;6.106;2023-08-08T13:27:36;20.80;97.50
12726;DHT22;6427;49.754;6.106;2023-08-08T13:30:04;20.80;97.00
12726;DHT22;6427;49.754;6.106;2023-08-08T13:32:31;20.80;97.00
12726;DHT22;6427;49.754;6.106;2023-08-08T13:34:59;20.80;96.80
12726;DHT22;6427;49.754;6.106;2023-08-08T13:37:27;20.80;97.40
12726;DHT22;6427;49.754;6.106;2023-08-08T13:39:55;20.80;97.10
12726;DHT22;6427;49.754;6.106;2023-08-08T13:42:22;20.80;97.00
12726;DHT22;6427;49.754;6.106;2023-08-08T13:44:51;20.90;96.90
12726;DHT22;6427;49.754;6.106;2023-08-08T13:47:19;20.90;96.10
12726;DHT22;6427;49.754;6.106;2023-08-08T13:49:47;20.90;96.40
12726;DHT22;6427;49.754;6.106;2023-08-08T13:52:15;20.80;96.10
12726;DHT22;6427;49.754;6.106;2023-08-08T13:54:43;20.80;96.10
12726;DHT22;6427;49.754;6.106;2023-08-08T13:57:10;20.90;96.10
12726;DHT22;6427;49.754;6.106;2023-08-08T13:59:38;20.80;96.10
12726;DHT22;6427;49.754;6.106;2023-08-08T14:02:06;20.80;96.00
12726;DHT22;6427;49.754;6.106;2023-08-08T14:04:33;20.80;95.80
12726;DHT22;6427;49.754;6.106;2023-08-08T14:07:02;21.00;94.50
12726;DHT22;6427;49.754;6.106;2023-08-08T14:09:29;21.00;94.50
12726;DHT22;6427;49.754;6.106;2023-08-08T14:11:57;21.00;94.00
12726;DHT22;6427;49.754;6.106;2023-08-08T14:14:25;21.10;94.40
12726;DHT22;6427;49.754;6.106;2023-08-08T14:16:53;21.10;94.40
12726;DHT22;6427;49.754;6.106;2023-08-08T14:19:20;21.20;94.30
12726;DHT22;6427;49.754;6.106;2023-08-08T14:21:48;21.20;94.00
12726;DHT22;6427;49.754;6.106;2023-08-08T14:24:16;21.20;93.30
12726;DHT22;6427;49.754;6.106;2023-08-08T14:26:44;21.50;91.70
12726;DHT22;6427;49.754;6.106;2023-08-08T14:29:12;21.40;91.70
12726;DHT22;6427;49.754;6.106;2023-08-08T14:31:39;21.30;91.80
12726;DHT22;6427;49.754;6.106;2023-08-08T14:34:07;21.10;92.30
12726;DHT22;6427;49.754;6.106;2023-08-08T14:36:35;20.70;92.70
12726;DHT22;6427;49.754;6.106;2023-08-08T14:39:03;20.70;92.70
12726;DHT22;6427;49.754;6.106;2023-08-08T14:41:30;20.70;93.20
12726;DHT22;6427;49.754;6.106;2023-08-08T14:43:58;20.70;93.40
12726;DHT22;6427;49.754;6.106;2023-08-08T14:46:26;20.80;93.80
12726;DHT22;6427;49.754;6.106;2023-08-08T14:48:53;20.90;93.80
12726;DHT22;6427;49.754;6.106;2023-08-08T14:51:21;21.00;93.80
12726;DHT22;6427;49.754;6.106;2023-08-08T14:53:48;21.30;93.70
12726;DHT22;6427;49.754;6.106;2023-08-08T14:56:16;21.50;93.70
12726;DHT22;6427;49.754;6.106;2023-08-08T14:58:44;21.70;92.60
12726;DHT22;6427;49.754;6.106;2023-08-08T15:01:12;21.70;92.60
12726;DHT22;6427;49.754;6.106;2023-08-08T15:03:40;21.80;92.20
12726;DHT22;6427;49.754;6.106;2023-08-08T15:06:08;21.70;91.40
12726;DHT22;6427;49.754;6.106;2023-08-08T15:08:36;21.70;91.30
12726;DHT22;6427;49.754;6.106;2023-08-08T15:11:03;21.60;91.10
12726;DHT22;6427;49.754;6.106;2023-08-08T15:13:32;21.40;91.30
12726;DHT22;6427;49.754;6.106;2023-08-08T15:15:59;21.40;91.30
12726;DHT22;6427;49.754;6.106;2023-08-08T15:18:27;21.30;91.60
12726;DHT22;6427;49.754;6.106;2023-08-08T15:20:55;21.10;91.90
12726;DHT22;6427;49.754;6.106;2023-08-08T15:23:23;21.00;92.60
12726;DHT22;6427;49.754;6.106;2023-08-08T15:25:50;20.90;92.60
12726;DHT22;6427;49.754;6.106;2023-08-08T15:28:19;20.80;93.10
12726;DHT22;6427;49.754;6.106;2023-08-08T15:30:47;20.80;93.10
12726;DHT22;6427;49.754;6.106;2023-08-08T15:33:14;20.80;93.60
12726;DHT22;6427;49.754;6.106;2023-08-08T15:35:42;20.70;93.70
12726;DHT22;6427;49.754;6.106;2023-08-08T15:38:10;20.70;93.90
12726;DHT22;6427;49.754;6.106;2023-08-08T15:40:37;20.60;94.20
12726;DHT22;6427;49.754;6.106;2023-08-08T15:43:05;20.50;94.50
12726;DHT22;6427;49.754;6.106;2023-08-08T15:45:32;20.40;94.80
12726;DHT22;6427;49.754;6.106;2023-08-08T15:48:00;20.50;94.80
12726;DHT22;6427;49.754;6.106;2023-08-08T15:50:27;20.30;94.80